sensor_id;sensor_type;location;lat;lon;timestamp;P1;durP1;ratioP1;P2;durP2;ratioP2
16975;SDS011;8604;48.148;-1.786;2022-08-16T00:02:30;16.73;;;14.93;;
16975;SDS011;8604;48.148;-1.786;2022-08-16T00:05:01;14.83;;;13.07;;
16975;SDS011;8604;48.148;-1.786;2022-08-16T00:07:31;16.07;;;14.40;;
16975;SDS011;8604;48.148;-1.786;2022-08-16T00:10:00;15.53;;;13.57;;
16975;SDS011;8604;48.148;-1.786;2022-08-16T00:12:30;20.40;;;17.27;;
16975;SDS011;8604;48.148;-1.786;2022-08-16T00:15:00;16.20;;;14.70;;
16975;SDS011;8604;48.148;-1.786;2022-08-16T00:17:37;18.60;;;16.70;;
16975;SDS011;8604;48.148;-1.786;2022-08-16T00:20:24;19.93;;;16.60;;
16975;SDS011;8604;48.148;-1.786;2022-08-16T00:22:53;18.57;;;15.50;;
16975;SDS011;8604;48.148;-1.786;2022-08-16T00:25:23;16.63;;;14.93;;
16975;SDS011;8604;48.148;-1.786;2022-08-16T00:28:12;18.57;;;16.47;;
16975;SDS011;8604;48.148;-1.786;2022-08-16T00:30:41;21.03;;;16.43;;
16975;SDS011;8604;48.148;-1.786;2022-08-16T00:33:10;18.53;;;16.57;;
16975;SDS011;8604;48.148;-1.786;2022-08-16T00:35:40;17.30;;;15.40;;
16975;SDS011;8604;48.148;-1.786;2022-08-16T00:38:08;18.27;;;16.43;;
16975;SDS011;8604;48.148;-1.786;2022-08-16T00:40:57;17.57;;;15.87;;
16975;SDS011;8604;48.148;-1.786;2022-08-16T00:43:27;16.50;;;14.80;;
16975;SDS011;8604;48.148;-1.786;2022-08-16T00:46:11;21.43;;;17.53;;
16975;SDS011;8604;48.148;-1.786;2022-08-16T00:49:00;17.47;;;15.47;;
16975;SDS011;8604;48.148;-1.786;2022-08-16T00:51:30;17.30;;;15.60;;
16975;SDS011;8604;48.148;-1.786;2022-08-16T00:53:59;18.97;;;16.93;;
16975;SDS011;8604;48.148;-1.786;2022-08-16T00:56:31;16.47;;;14.77;;
16975;SDS011;8604;48.148;-1.786;2022-08-16T00:59:21;16.70;;;15.10;;
16975;SDS011;8604;48.148;-1.786;2022-08-16T01:01:51;17.33;;;15.53;;
16975;SDS011;8604;48.148;-1.786;2022-08-16T01:04:20;17.20;;;15.50;;
16975;SDS011;8604;48.148;-1.786;2022-08-16T01:06:58;19.93;;;15.50;;
16975;SDS011;8604;48.148;-1.786;2022-08-16T01:09:29;19.00;;;17.10;;
16975;SDS011;8604;48.148;-1.786;2022-08-16T01:12:00;18.27;;;16.37;;
16975;SDS011;8604;48.148;-1.786;2022-08-16T01:14:35;18.97;;;15.83;;
16975;SDS011;8604;48.148;-1.786;2022-08-16T01:17:09;21.80;;;18.87;;
16975;SDS011;8604;48.148;-1.786;2022-08-16T01:19:40;20.43;;;18.27;;
16975;SDS011;8604;48.148;-1.786;2022-08-16T01:22:15;23.57;;;19.10;;
16975;SDS011;8604;48.148;-1.786;2022-08-16T01:25:14;19.70;;;17.53;;
16975;SDS011;8604;48.148;-1.786;2022-08-16T01:27:49;18.80;;;16.90;;
16975;SDS011;8604;48.148;-1.786;2022-08-16T01:30:21;19.93;;;17.50;;
16975;SDS011;8604;48.148;-1.786;2022-08-16T01:32:54;18.73;;;16.80;;
16975;SDS011;8604;48.148;-1.786;2022-08-16T01:35:41;18.67;;;16.77;;
16975;SDS011;8604;48.148;-1.786;2022-08-16T01:38:20;17.30;;;15.60;;
16975;SDS011;8604;48.148;-1.786;2022-08-16T01:40:54;17.73;;;16.13;;
16975;SDS011;8604;48.148;-1.786;2022-08-16T01:43:28;17.77;;;15.87;;
16975;SDS011;8604;48.148;-1.786;2022-08-16T01:46:01;19.90;;;17.70;;
16975;SDS011;8604;48.148;-1.786;2022-08-16T01:48:52;23.43;;;19.90;;
16975;SDS011;8604;48.148;-1.786;2022-08-16T01:51:22;20.07;;;17.97;;
16975;SDS011;8604;48.148;-1.786;2022-08-16T01:53:53;19.43;;;17.43;;
16975;SDS011;8604;48.148;-1.786;2022-08-16T01:56:29;19.27;;;17.37;;
16975;SDS011;8604;48.148;-1.786;2022-08-16T01:59:02;19.40;;;17.50;;
16975;SDS011;8604;48.148;-1.786;2022-08-16T02:01:42;19.37;;;17.40;;
16975;SDS011;8604;48.148;-1.786;2022-08-16T02:04:26;22.30;;;20.13;;
16975;SDS011;8604;48.148;-1.786;2022-08-16T02:07:16;20.40;;;18.33;;
16975;SDS011;8604;48.148;-1.786;2022-08-16T02:09:49;17.10;;;15.40;;
16975;SDS011;8604;48.148;-1.786;2022-08-16T02:12:35;20.13;;;18.17;;
16975;SDS011;8604;48.148;-1.786;2022-08-16T02:15:21;17.80;;;16.00;;
16975;SDS011;8604;48.148;-1.786;2022-08-16T02:17:54;19.53;;;17.83;;
16975;SDS011;8604;48.148;-1.786;2022-08-16T02:20:23;18.20;;;16.50;;
16975;SDS011;8604;48.148;-1.786;2022-08-16T02:22:53;19.80;;;17.90;;
16975;SDS011;8604;48.148;-1.786;2022-08-16T02:25:22;20.57;;;16.70;;
16975;SDS011;8604;48.148;-1.786;2022-08-16T02:28:12;18.17;;;16.23;;
16975;SDS011;8604;48.148;-1.786;2022-08-16T02:30:43;19.83;;;17.90;;
16975;SDS011;8604;48.148;-1.786;2022-08-16T02:33:17;20.10;;;18.00;;
16975;SDS011;8604;48.148;-1.786;2022-08-16T02:35:52;22.60;;;18.20;;
16975;SDS011;8604;48.148;-1.786;2022-08-16T02:38:27;21.97;;;19.87;;
16975;SDS011;8604;48.148;-1.786;2022-08-16T02:40:58;22.80;;;20.50;;
16975;SDS011;8604;48.148;-1.786;2022-08-16T02:43:38;20.57;;;18.30;;
16975;SDS011;8604;48.148;-1.786;2022-08-16T02:46:07;20.83;;;18.77;;
16975;SDS011;8604;48.148;-1.786;2022-08-16T02:48:37;20.50;;;18.27;;
16975;SDS011;8604;48.148;-1.786;2022-08-16T02:51:16;19.33;;;17.33;;
16975;SDS011;8604;48.148;-1.786;2022-08-16T02:53:49;19.30;;;17.27;;
16975;SDS011;8604;48.148;-1.786;2022-08-16T02:56:18;20.77;;;18.77;;
16975;SDS011;8604;48.148;-1.786;2022-08-16T02:58:52;21.40;;;19.03;;
16975;SDS011;8604;48.148;-1.786;2022-08-16T03:01:23;20.33;;;18.33;;
16975;SDS011;8604;48.148;-1.786;2022-08-16T03:04:17;19.27;;;17.43;;
16975;SDS011;8604;48.148;-1.786;2022-08-16T03:07:06;18.23;;;16.30;;
16975;SDS011;8604;48.148;-1.786;2022-08-16T03:09:39;20.13;;;18.23;;
16975;SDS011;8604;48.148;-1.786;2022-08-16T03:12:12;20.27;;;18.13;;
16975;SDS011;8604;48.148;-1.786;2022-08-16T03:14:44;23.63;;;19.90;;
16975;SDS011;8604;48.148;-1.786;2022-08-16T03:17:15;23.47;;;20.97;;
16975;SDS011;8604;48.148;-1.786;2022-08-16T03:19:47;22.00;;;19.90;;
16975;SDS011;8604;48.148;-1.786;2022-08-16T03:22:33;21.93;;;18.43;;
16975;SDS011;8604;48.148;-1.786;2022-08-16T03:25:11;20.13;;;18.17;;
16975;SDS011;8604;48.148;-1.786;2022-08-16T03:27:51;20.37;;;18.33;;
16975;SDS011;8604;48.148;-1.786;2022-08-16T03:30:23;19.57;;;17.77;;
16975;SDS011;8604;48.148;-1.786;2022-08-16T03:32:57;21.33;;;19.23;;
16975;SDS011;8604;48.148;-1.786;2022-08-16T03:35:32;21.23;;;19.10;;
16975;SDS011;8604;48.148;-1.786;2022-08-16T03:38:32;20.97;;;18.40;;
16975;SDS011;8604;48.148;-1.786;2022-08-16T03:41:06;22.90;;;20.73;;
16975;SDS011;8604;48.148;-1.786;2022-08-16T03:43:54;22.53;;;18.27;;
16975;SDS011;8604;48.148;-1.786;2022-08-16T03:46:28;24.73;;;22.13;;
16975;SDS011;8604;48.148;-1.786;2022-08-16T03:49:24;24.63;;;22.07;;
16975;SDS011;8604;48.148;-1.786;2022-08-16T03:52:05;24.83;;;21.87;;
16975;SDS011;8604;48.148;-1.786;2022-08-16T03:54:35;24.23;;;20.53;;
16975;SDS011;8604;48.148;-1.786;2022-08-16T03:57:19;25.87;;;23.03;;
16975;SDS011;8604;48.148;-1.786;2022-08-16T03:59:51;22.93;;;19.83;;
16975;SDS011;8604;48.148;-1.786;2022-08-16T04:02:22;26.20;;;23.30;;
16975;SDS011;8604;48.148;-1.786;2022-08-16T04:05:01;24.57;;;19.83;;
16975;SDS011;8604;48.148;-1.786;2022-08-16T04:07:31;24.23;;;21.80;;
16975;SDS011;8604;48.148;-1.786;2022-08-16T04:10:00;23.77;;;21.03;;
16975;SDS011;8604;48.148;-1.786;2022-08-16T04:12:50;25.87;;;20.83;;
16975;SDS011;8604;48.148;-1.786;2022-08-16T04:15:27;23.57;;;20.97;;
16975;SDS011;8604;48.148;-1.786;2022-08-16T04:18:15;23.77;;;20.43;;
16975;SDS011;8604;48.148;-1.786;2022-08-16T04:20:44;24.53;;;21.80;;
16975;SDS011;8604;48.148;-1.786;2022-08-16T04:23:13;23.40;;;20.93;;
16975;SDS011;8604;48.148;-1.786;2022-08-16T04:25:42;24.63;;;20.33;;
16975;SDS011;8604;48.148;-1.786;2022-08-16T04:28:13;24.23;;;21.03;;
16975;SDS011;8604;48.148;-1.786;2022-08-16T04:31:03;23.20;;;20.03;;
16975;SDS011;8604;48.148;-1.786;2022-08-16T04:33:36;26.40;;;21.47;;
16975;SDS011;8604;48.148;-1.786;2022-08-16T04:36:17;26.50;;;22.90;;
16975;SDS011;8604;48.148;-1.786;2022-08-16T04:38:47;30.33;;;26.10;;
16975;SDS011;8604;48.148;-1.786;2022-08-16T04:41:15;27.90;;;25.00;;
16975;SDS011;8604;48.148;-1.786;2022-08-16T04:43:58;34.20;;;28.00;;
16975;SDS011;8604;48.148;-1.786;2022-08-16T04:46:26;26.87;;;23.93;;
16975;SDS011;8604;48.148;-1.786;2022-08-16T04:49:16;25.10;;;22.50;;
16975;SDS011;8604;48.148;-1.786;2022-08-16T04:51:45;25.40;;;22.80;;
16975;SDS011;8604;48.148;-1.786;2022-08-16T04:54:20;28.30;;;24.43;;
16975;SDS011;8604;48.148;-1.786;2022-08-16T04:56:49;33.77;;;27.60;;
16975;SDS011;8604;48.148;-1.786;2022-08-16T04:59:19;30.57;;;24.57;;
16975;SDS011;8604;48.148;-1.786;2022-08-16T05:01:47;29.53;;;24.77;;
16975;SDS011;8604;48.148;-1.786;2022-08-16T05:04:26;25.30;;;22.43;;
16975;SDS011;8604;48.148;-1.786;2022-08-16T05:06:56;31.37;;;26.10;;
16975;SDS011;8604;48.148;-1.786;2022-08-16T05:09:39;27.37;;;22.10;;
16975;SDS011;8604;48.148;-1.786;2022-08-16T05:12:15;24.30;;;20.23;;
16975;SDS011;8604;48.148;-1.786;2022-08-16T05:14:48;27.83;;;21.83;;
16975;SDS011;8604;48.148;-1.786;2022-08-16T05:17:30;23.80;;;21.13;;
16975;SDS011;8604;48.148;-1.786;2022-08-16T05:20:04;25.73;;;22.07;;
16975;SDS011;8604;48.148;-1.786;2022-08-16T05:22:56;22.57;;;19.70;;
16975;SDS011;8604;48.148;-1.786;2022-08-16T05:25:26;27.30;;;20.30;;
16975;SDS011;8604;48.148;-1.786;2022-08-16T05:28:06;25.57;;;20.17;;
16975;SDS011;8604;48.148;-1.786;2022-08-16T05:30:41;28.23;;;21.40;;
16975;SDS011;8604;48.148;-1.786;2022-08-16T05:33:15;22.27;;;18.87;;
16975;SDS011;8604;48.148;-1.786;2022-08-16T05:35:48;18.80;;;16.67;;
16975;SDS011;8604;48.148;-1.786;2022-08-16T05:38:35;22.97;;;17.60;;
16975;SDS011;8604;48.148;-1.786;2022-08-16T05:41:09;21.87;;;18.13;;
16975;SDS011;8604;48.148;-1.786;2022-08-16T05:43:44;19.00;;;15.70;;
16975;SDS011;8604;48.148;-1.786;2022-08-16T05:46:44;19.83;;;16.83;;
16975;SDS011;8604;48.148;-1.786;2022-08-16T05:49:43;24.63;;;17.23;;
16975;SDS011;8604;48.148;-1.786;2022-08-16T05:52:42;20.93;;;16.77;;
16975;SDS011;8604;48.148;-1.786;2022-08-16T05:55:33;20.70;;;16.13;;
16975;SDS011;8604;48.148;-1.786;2022-08-16T05:58:07;26.43;;;19.50;;
16975;SDS011;8604;48.148;-1.786;2022-08-16T06:01:09;24.47;;;19.27;;
16975;SDS011;8604;48.148;-1.786;2022-08-16T06:03:44;21.77;;;17.50;;
16975;SDS011;8604;48.148;-1.786;2022-08-16T06:06:54;24.30;;;17.83;;
16975;SDS011;8604;48.148;-1.786;2022-08-16T06:09:53;23.97;;;18.30;;
16975;SDS011;8604;48.148;-1.786;2022-08-16T06:12:33;23.47;;;20.67;;
16975;SDS011;8604;48.148;-1.786;2022-08-16T06:15:30;22.83;;;20.07;;
16975;SDS011;8604;48.148;-1.786;2022-08-16T06:18:12;22.60;;;18.07;;
16975;SDS011;8604;48.148;-1.786;2022-08-16T06:21:22;22.37;;;17.97;;
16975;SDS011;8604;48.148;-1.786;2022-08-16T06:24:23;20.77;;;17.27;;
16975;SDS011;8604;48.148;-1.786;2022-08-16T06:30:46;23.10;;;17.57;;
16975;SDS011;8604;48.148;-1.786;2022-08-16T06:33:40;21.73;;;18.50;;
16975;SDS011;8604;48.148;-1.786;2022-08-16T06:36:22;21.27;;;16.47;;
16975;SDS011;8604;48.148;-1.786;2022-08-16T06:39:12;24.63;;;17.13;;
16975;SDS011;8604;48.148;-1.786;2022-08-16T06:41:58;21.80;;;17.10;;
16975;SDS011;8604;48.148;-1.786;2022-08-16T06:44:54;20.10;;;15.87;;
16975;SDS011;8604;48.148;-1.786;2022-08-16T06:47:54;19.53;;;16.10;;
16975;SDS011;8604;48.148;-1.786;2022-08-16T06:50:25;24.70;;;17.13;;
16975;SDS011;8604;48.148;-1.786;2022-08-16T06:53:02;26.87;;;18.73;;
16975;SDS011;8604;48.148;-1.786;2022-08-16T06:55:37;23.97;;;18.83;;
16975;SDS011;8604;48.148;-1.786;2022-08-16T06:58:11;24.90;;;18.93;;
16975;SDS011;8604;48.148;-1.786;2022-08-16T07:01:07;22.87;;;18.10;;
16975;SDS011;8604;48.148;-1.786;2022-08-16T07:03:46;22.17;;;17.97;;
16975;SDS011;8604;48.148;-1.786;2022-08-16T07:06:21;20.30;;;17.33;;
16975;SDS011;8604;48.148;-1.786;2022-08-16T07:08:54;19.60;;;16.77;;
16975;SDS011;8604;48.148;-1.786;2022-08-16T07:11:27;20.47;;;17.40;;
16975;SDS011;8604;48.148;-1.786;2022-08-16T07:14:24;21.40;;;17.07;;
16975;SDS011;8604;48.148;-1.786;2022-08-16T07:16:58;19.90;;;16.60;;
16975;SDS011;8604;48.148;-1.786;2022-08-16T07:19:28;25.43;;;18.23;;
16975;SDS011;8604;48.148;-1.786;2022-08-16T07:22:24;21.37;;;15.10;;
16975;SDS011;8604;48.148;-1.786;2022-08-16T07:25:12;20.53;;;14.57;;
16975;SDS011;8604;48.148;-1.786;2022-08-16T07:27:43;23.30;;;16.03;;
16975;SDS011;8604;48.148;-1.786;2022-08-16T07:30:15;18.47;;;14.77;;
16975;SDS011;8604;48.148;-1.786;2022-08-16T07:33:07;18.80;;;14.03;;
16975;SDS011;8604;48.148;-1.786;2022-08-16T07:35:42;20.87;;;14.97;;
16975;SDS011;8604;48.148;-1.786;2022-08-16T07:38:17;16.23;;;14.10;;
16975;SDS011;8604;48.148;-1.786;2022-08-16T07:41:00;15.13;;;13.13;;
16975;SDS011;8604;48.148;-1.786;2022-08-16T07:43:39;16.67;;;14.33;;
16975;SDS011;8604;48.148;-1.786;2022-08-16T07:46:09;16.13;;;11.80;;
16975;SDS011;8604;48.148;-1.786;2022-08-16T07:49:03;24.70;;;13.50;;
16975;SDS011;8604;48.148;-1.786;2022-08-16T07:51:38;24.93;;;14.93;;
16975;SDS011;8604;48.148;-1.786;2022-08-16T07:54:09;20.27;;;9.57;;
16975;SDS011;8604;48.148;-1.786;2022-08-16T07:56:49;17.67;;;7.90;;
16975;SDS011;8604;48.148;-1.786;2022-08-16T07:59:19;18.63;;;7.87;;
16975;SDS011;8604;48.148;-1.786;2022-08-16T08:01:50;13.10;;;6.57;;
16975;SDS011;8604;48.148;-1.786;2022-08-16T08:04:21;10.53;;;6.40;;
16975;SDS011;8604;48.148;-1.786;2022-08-16T08:06:58;11.43;;;6.63;;
16975;SDS011;8604;48.148;-1.786;2022-08-16T08:09:34;10.33;;;5.83;;
16975;SDS011;8604;48.148;-1.786;2022-08-16T08:12:09;8.83;;;4.13;;
16975;SDS011;8604;48.148;-1.786;2022-08-16T08:14:57;9.83;;;4.30;;
16975;SDS011;8604;48.148;-1.786;2022-08-16T08:17:26;8.77;;;4.10;;
16975;SDS011;8604;48.148;-1.786;2022-08-16T08:20:15;8.70;;;3.77;;
16975;SDS011;8604;48.148;-1.786;2022-08-16T08:22:55;8.77;;;4.23;;
16975;SDS011;8604;48.148;-1.786;2022-08-16T08:25:28;7.13;;;3.93;;
16975;SDS011;8604;48.148;-1.786;2022-08-16T08:28:17;8.10;;;4.63;;
16975;SDS011;8604;48.148;-1.786;2022-08-16T08:30:47;8.60;;;4.03;;
16975;SDS011;8604;48.148;-1.786;2022-08-16T08:33:29;8.13;;;4.00;;
16975;SDS011;8604;48.148;-1.786;2022-08-16T08:36:22;8.53;;;4.50;;
16975;SDS011;8604;48.148;-1.786;2022-08-16T08:39:05;8.63;;;4.47;;
16975;SDS011;8604;48.148;-1.786;2022-08-16T08:41:39;8.03;;;4.10;;
16975;SDS011;8604;48.148;-1.786;2022-08-16T08:44:08;10.10;;;4.67;;
16975;SDS011;8604;48.148;-1.786;2022-08-16T08:46:57;11.37;;;4.67;;
16975;SDS011;8604;48.148;-1.786;2022-08-16T08:49:29;10.03;;;4.00;;
16975;SDS011;8604;48.148;-1.786;2022-08-16T08:52:14;6.27;;;3.67;;
16975;SDS011;8604;48.148;-1.786;2022-08-16T08:55:03;8.50;;;3.70;;
16975;SDS011;8604;48.148;-1.786;2022-08-16T08:57:37;8.50;;;3.77;;
16975;SDS011;8604;48.148;-1.786;2022-08-16T09:00:29;6.37;;;3.00;;
16975;SDS011;8604;48.148;-1.786;2022-08-16T09:03:16;5.03;;;2.73;;
16975;SDS011;8604;48.148;-1.786;2022-08-16T09:05:47;5.10;;;2.67;;
16975;SDS011;8604;48.148;-1.786;2022-08-16T09:08:20;5.47;;;2.33;;
16975;SDS011;8604;48.148;-1.786;2022-08-16T09:11:00;5.67;;;2.47;;
16975;SDS011;8604;48.148;-1.786;2022-08-16T09:13:44;5.33;;;3.10;;
16975;SDS011;8604;48.148;-1.786;2022-08-16T09:16:18;3.90;;;1.97;;
16975;SDS011;8604;48.148;-1.786;2022-08-16T09:19:16;4.00;;;2.40;;
16975;SDS011;8604;48.148;-1.786;2022-08-16T09:21:58;4.05;;;2.45;;
16975;SDS011;8604;48.148;-1.786;2022-08-16T09:24:29;5.05;;;2.20;;
16975;SDS011;8604;48.148;-1.786;2022-08-16T09:27:17;4.13;;;2.20;;
16975;SDS011;8604;48.148;-1.786;2022-08-16T09:29:46;4.35;;;2.30;;
16975;SDS011;8604;48.148;-1.786;2022-08-16T09:32:26;6.20;;;2.45;;
16975;SDS011;8604;48.148;-1.786;2022-08-16T09:34:57;3.25;;;2.00;;
16975;SDS011;8604;48.148;-1.786;2022-08-16T09:37:27;4.85;;;2.20;;
16975;SDS011;8604;48.148;-1.786;2022-08-16T09:40:06;3.42;;;2.17;;
16975;SDS011;8604;48.148;-1.786;2022-08-16T09:42:56;4.30;;;2.20;;
16975;SDS011;8604;48.148;-1.786;2022-08-16T09:45:25;2.65;;;1.80;;
16975;SDS011;8604;48.148;-1.786;2022-08-16T09:47:56;3.33;;;1.85;;
16975;SDS011;8604;48.148;-1.786;2022-08-16T09:50:27;3.35;;;1.77;;
16975;SDS011;8604;48.148;-1.786;2022-08-16T09:53:05;2.85;;;1.60;;
16975;SDS011;8604;48.148;-1.786;2022-08-16T09:55:44;2.35;;;1.58;;
16975;SDS011;8604;48.148;-1.786;2022-08-16T09:58:15;4.30;;;1.42;;
16975;SDS011;8604;48.148;-1.786;2022-08-16T10:01:05;3.58;;;1.50;;
16975;SDS011;8604;48.148;-1.786;2022-08-16T10:03:44;3.45;;;1.55;;
16975;SDS011;8604;48.148;-1.786;2022-08-16T10:06:28;5.28;;;1.60;;
16975;SDS011;8604;48.148;-1.786;2022-08-16T10:09:01;2.53;;;1.48;;
16975;SDS011;8604;48.148;-1.786;2022-08-16T10:11:37;3.42;;;1.50;;
16975;SDS011;8604;48.148;-1.786;2022-08-16T10:14:45;2.58;;;1.60;;
16975;SDS011;8604;48.148;-1.786;2022-08-16T10:17:14;4.70;;;1.60;;
16975;SDS011;8604;48.148;-1.786;2022-08-16T10:19:42;3.53;;;1.60;;
16975;SDS011;8604;48.148;-1.786;2022-08-16T10:22:16;3.78;;;1.55;;
16975;SDS011;8604;48.148;-1.786;2022-08-16T10:24:48;2.30;;;1.55;;
16975;SDS011;8604;48.148;-1.786;2022-08-16T10:27:26;1.65;;;1.38;;
16975;SDS011;8604;48.148;-1.786;2022-08-16T10:30:19;4.45;;;1.77;;
16975;SDS011;8604;48.148;-1.786;2022-08-16T10:32:51;1.85;;;1.40;;
16975;SDS011;8604;48.148;-1.786;2022-08-16T10:35:20;2.92;;;1.50;;
16975;SDS011;8604;48.148;-1.786;2022-08-16T10:37:58;2.95;;;1.27;;
16975;SDS011;8604;48.148;-1.786;2022-08-16T10:40:33;3.47;;;1.42;;
16975;SDS011;8604;48.148;-1.786;2022-08-16T10:43:04;2.05;;;1.45;;
16975;SDS011;8604;48.148;-1.786;2022-08-16T10:45:43;3.90;;;1.50;;
16975;SDS011;8604;48.148;-1.786;2022-08-16T10:48:26;2.40;;;1.38;;
16975;SDS011;8604;48.148;-1.786;2022-08-16T10:50:58;3.85;;;1.50;;
16975;SDS011;8604;48.148;-1.786;2022-08-16T10:53:27;2.30;;;1.30;;
16975;SDS011;8604;48.148;-1.786;2022-08-16T10:56:45;3.72;;;1.50;;
16975;SDS011;8604;48.148;-1.786;2022-08-16T10:59:48;3.00;;;1.75;;
16975;SDS011;8604;48.148;-1.786;2022-08-16T11:02:24;3.90;;;1.90;;
16975;SDS011;8604;48.148;-1.786;2022-08-16T11:05:15;2.50;;;1.58;;
16975;SDS011;8604;48.148;-1.786;2022-08-16T11:07:45;3.35;;;1.80;;
16975;SDS011;8604;48.148;-1.786;2022-08-16T11:10:19;4.10;;;1.83;;
16975;SDS011;8604;48.148;-1.786;2022-08-16T11:13:12;4.25;;;1.85;;
16975;SDS011;8604;48.148;-1.786;2022-08-16T11:16:03;2.78;;;1.90;;
16975;SDS011;8604;48.148;-1.786;2022-08-16T11:18:53;3.00;;;1.75;;
16975;SDS011;8604;48.148;-1.786;2022-08-16T11:21:37;4.35;;;2.00;;
16975;SDS011;8604;48.148;-1.786;2022-08-16T11:24:27;3.67;;;2.10;;
16975;SDS011;8604;48.148;-1.786;2022-08-16T11:27:06;3.97;;;1.90;;
16975;SDS011;8604;48.148;-1.786;2022-08-16T11:29:55;4.68;;;1.95;;
16975;SDS011;8604;48.148;-1.786;2022-08-16T11:32:26;4.65;;;2.08;;
16975;SDS011;8604;48.148;-1.786;2022-08-16T11:35:00;3.28;;;1.98;;
16975;SDS011;8604;48.148;-1.786;2022-08-16T11:37:37;7.68;;;2.20;;
16975;SDS011;8604;48.148;-1.786;2022-08-16T11:40:27;4.95;;;2.00;;
16975;SDS011;8604;48.148;-1.786;2022-08-16T11:42:58;3.45;;;2.15;;
16975;SDS011;8604;48.148;-1.786;2022-08-16T11:45:30;3.40;;;2.10;;
16975;SDS011;8604;48.148;-1.786;2022-08-16T11:48:02;5.43;;;2.30;;
16975;SDS011;8604;48.148;-1.786;2022-08-16T11:50:32;2.83;;;2.15;;
16975;SDS011;8604;48.148;-1.786;2022-08-16T11:53:03;3.47;;;1.90;;
16975;SDS011;8604;48.148;-1.786;2022-08-16T11:55:34;3.83;;;2.22;;
16975;SDS011;8604;48.148;-1.786;2022-08-16T11:58:04;3.05;;;2.22;;
16975;SDS011;8604;48.148;-1.786;2022-08-16T12:00:37;3.30;;;2.10;;
16975;SDS011;8604;48.148;-1.786;2022-08-16T12:03:20;2.80;;;1.80;;
16975;SDS011;8604;48.148;-1.786;2022-08-16T12:06:01;4.82;;;2.03;;
16975;SDS011;8604;48.148;-1.786;2022-08-16T12:08:50;2.80;;;2.10;;
16975;SDS011;8604;48.148;-1.786;2022-08-16T12:11:21;3.58;;;2.20;;
16975;SDS011;8604;48.148;-1.786;2022-08-16T12:13:52;3.15;;;2.00;;
16975;SDS011;8604;48.148;-1.786;2022-08-16T12:16:21;4.47;;;2.30;;
16975;SDS011;8604;48.148;-1.786;2022-08-16T12:18:58;2.85;;;2.00;;
16975;SDS011;8604;48.148;-1.786;2022-08-16T12:21:27;3.92;;;2.08;;
16975;SDS011;8604;48.148;-1.786;2022-08-16T12:24:19;4.25;;;2.35;;
16975;SDS011;8604;48.148;-1.786;2022-08-16T12:26:49;2.67;;;2.00;;
16975;SDS011;8604;48.148;-1.786;2022-08-16T12:29:19;3.65;;;1.90;;
16975;SDS011;8604;48.148;-1.786;2022-08-16T12:31:54;2.47;;;1.90;;
16975;SDS011;8604;48.148;-1.786;2022-08-16T12:34:44;2.72;;;2.00;;
16975;SDS011;8604;48.148;-1.786;2022-08-16T12:37:23;3.78;;;1.90;;
16975;SDS011;8604;48.148;-1.786;2022-08-16T12:39:53;2.90;;;2.05;;
16975;SDS011;8604;48.148;-1.786;2022-08-16T12:42:24;3.03;;;1.80;;
16975;SDS011;8604;48.148;-1.786;2022-08-16T12:45:03;3.95;;;1.90;;
16975;SDS011;8604;48.148;-1.786;2022-08-16T12:47:32;3.10;;;1.80;;
16975;SDS011;8604;48.148;-1.786;2022-08-16T12:50:39;4.00;;;1.90;;
16975;SDS011;8604;48.148;-1.786;2022-08-16T12:53:14;3.55;;;1.92;;
16975;SDS011;8604;48.148;-1.786;2022-08-16T12:55:43;2.47;;;1.70;;
16975;SDS011;8604;48.148;-1.786;2022-08-16T12:58:13;3.97;;;1.90;;
16975;SDS011;8604;48.148;-1.786;2022-08-16T13:01:02;3.08;;;1.90;;
16975;SDS011;8604;48.148;-1.786;2022-08-16T13:03:36;2.40;;;1.90;;
16975;SDS011;8604;48.148;-1.786;2022-08-16T13:06:08;3.67;;;1.88;;
16975;SDS011;8604;48.148;-1.786;2022-08-16T13:08:38;2.65;;;1.95;;
16975;SDS011;8604;48.148;-1.786;2022-08-16T13:11:11;2.13;;;1.70;;
16975;SDS011;8604;48.148;-1.786;2022-08-16T13:13:43;3.15;;;1.90;;
16975;SDS011;8604;48.148;-1.786;2022-08-16T13:16:20;2.33;;;1.73;;
16975;SDS011;8604;48.148;-1.786;2022-08-16T13:18:52;3.47;;;1.80;;
16975;SDS011;8604;48.148;-1.786;2022-08-16T13:21:25;2.47;;;1.80;;
16975;SDS011;8604;48.148;-1.786;2022-08-16T13:24:00;3.40;;;1.52;;
16975;SDS011;8604;48.148;-1.786;2022-08-16T13:26:38;3.75;;;1.73;;
16975;SDS011;8604;48.148;-1.786;2022-08-16T13:29:21;2.17;;;1.65;;
16975;SDS011;8604;48.148;-1.786;2022-08-16T13:32:05;3.83;;;1.70;;
16975;SDS011;8604;48.148;-1.786;2022-08-16T13:34:54;2.53;;;1.70;;
16975;SDS011;8604;48.148;-1.786;2022-08-16T13:37:24;2.05;;;1.50;;
16975;SDS011;8604;48.148;-1.786;2022-08-16T13:39:53;2.65;;;1.60;;
16975;SDS011;8604;48.148;-1.786;2022-08-16T13:42:22;3.10;;;1.65;;
16975;SDS011;8604;48.148;-1.786;2022-08-16T13:44:52;3.28;;;2.00;;
16975;SDS011;8604;48.148;-1.786;2022-08-16T13:47:23;3.42;;;2.10;;
16975;SDS011;8604;48.148;-1.786;2022-08-16T13:49:56;3.38;;;2.08;;
16975;SDS011;8604;48.148;-1.786;2022-08-16T13:52:25;3.83;;;1.90;;
16975;SDS011;8604;48.148;-1.786;2022-08-16T13:54:59;4.78;;;2.10;;
16975;SDS011;8604;48.148;-1.786;2022-08-16T13:57:29;3.67;;;2.20;;
16975;SDS011;8604;48.148;-1.786;2022-08-16T14:00:18;6.38;;;2.40;;
16975;SDS011;8604;48.148;-1.786;2022-08-16T14:02:48;9.38;;;2.63;;
16975;SDS011;8604;48.148;-1.786;2022-08-16T14:05:21;214.00;;;22.48;;
16975;SDS011;8604;48.148;-1.786;2022-08-16T14:07:51;6.68;;;2.45;;
16975;SDS011;8604;48.148;-1.786;2022-08-16T14:10:20;7.93;;;2.42;;
16975;SDS011;8604;48.148;-1.786;2022-08-16T14:12:48;12.90;;;3.20;;
16975;SDS011;8604;48.148;-1.786;2022-08-16T14:15:17;14.27;;;2.83;;
16975;SDS011;8604;48.148;-1.786;2022-08-16T14:17:46;56.20;;;7.28;;
16975;SDS011;8604;48.148;-1.786;2022-08-16T14:20:35;7.75;;;2.60;;
16975;SDS011;8604;48.148;-1.786;2022-08-16T14:23:05;12.20;;;2.65;;
16975;SDS011;8604;48.148;-1.786;2022-08-16T14:25:34;4.82;;;2.58;;
16975;SDS011;8604;48.148;-1.786;2022-08-16T14:28:02;9.60;;;2.80;;
16975;SDS011;8604;48.148;-1.786;2022-08-16T14:30:35;5.85;;;2.40;;
16975;SDS011;8604;48.148;-1.786;2022-08-16T14:33:06;6.28;;;2.70;;
16975;SDS011;8604;48.148;-1.786;2022-08-16T14:35:35;5.07;;;2.45;;
16975;SDS011;8604;48.148;-1.786;2022-08-16T14:38:23;5.60;;;2.53;;
16975;SDS011;8604;48.148;-1.786;2022-08-16T14:41:05;5.55;;;2.45;;
16975;SDS011;8604;48.148;-1.786;2022-08-16T14:43:36;5.28;;;2.63;;
16975;SDS011;8604;48.148;-1.786;2022-08-16T14:46:09;4.22;;;2.50;;
16975;SDS011;8604;48.148;-1.786;2022-08-16T14:48:40;2.97;;;2.17;;
16975;SDS011;8604;48.148;-1.786;2022-08-16T14:51:18;4.18;;;2.42;;
16975;SDS011;8604;48.148;-1.786;2022-08-16T14:53:55;5.15;;;2.55;;
16975;SDS011;8604;48.148;-1.786;2022-08-16T14:56:27;4.82;;;2.75;;
16975;SDS011;8604;48.148;-1.786;2022-08-16T14:59:08;3.95;;;2.35;;
16975;SDS011;8604;48.148;-1.786;2022-08-16T15:01:36;5.18;;;2.50;;
16975;SDS011;8604;48.148;-1.786;2022-08-16T15:04:24;3.87;;;2.30;;
16975;SDS011;8604;48.148;-1.786;2022-08-16T15:07:06;5.05;;;2.33;;
16975;SDS011;8604;48.148;-1.786;2022-08-16T15:09:40;6.07;;;2.38;;
16975;SDS011;8604;48.148;-1.786;2022-08-16T15:12:27;4.47;;;2.20;;
16975;SDS011;8604;48.148;-1.786;2022-08-16T15:15:03;4.30;;;2.20;;
16975;SDS011;8604;48.148;-1.786;2022-08-16T15:17:42;3.92;;;2.10;;
16975;SDS011;8604;48.148;-1.786;2022-08-16T15:20:23;4.00;;;2.22;;
16975;SDS011;8604;48.148;-1.786;2022-08-16T15:26:01;4.32;;;2.40;;
16975;SDS011;8604;48.148;-1.786;2022-08-16T15:28:34;4.43;;;2.40;;
16975;SDS011;8604;48.148;-1.786;2022-08-16T15:31:04;6.10;;;2.40;;
16975;SDS011;8604;48.148;-1.786;2022-08-16T15:33:35;4.37;;;2.37;;
16975;SDS011;8604;48.148;-1.786;2022-08-16T15:36:10;4.27;;;2.20;;
16975;SDS011;8604;48.148;-1.786;2022-08-16T15:38:43;3.93;;;2.10;;
16975;SDS011;8604;48.148;-1.786;2022-08-16T15:44:53;3.53;;;2.40;;
16975;SDS011;8604;48.148;-1.786;2022-08-16T15:47:24;5.63;;;2.50;;